Time;durP1;ratioP1;P1;durP2;ratioP2;P2;SDS_P1;SDS_P2;PMS_P1;PMS_P2;Temp;Humidity;BMP_temperature;BMP_pressure;BME280_temperature;BME280_humidity;BME280_pressure;Samples;Min_cycle;Max_cycle;Signal;HPM_P1;HPM_P2
2022/05/29 00:00:19;;;;;;;43.35;31.60;;;;;;;;;;5069100;28;20391;-82
2022/05/29 00:02:48;;;;;;;33.88;29.38;;;;;;;;;;5077954;28;20131;-82
2022/05/29 00:05:14;;;;;;;38.97;30.23;;;;;;;;;;5096723;28;20071;-82
2022/05/29 00:07:40;;;;;;;36.15;29.25;;;;;;;;;;5071434;28;20076;-84
2022/05/29 00:10:09;;;;;;;33.78;27.55;;;;;;;;;;5088769;28;20009;-82
2022/05/29 00:12:35;;;;;;;38.25;31.52;;;;;;;;;;5088482;28;20012;-81
2022/05/29 00:15:01;;;;;;;38.95;32.15;;;;;;;;;;5078339;28;20103;-82
2022/05/29 00:17:27;;;;;;;40.67;31.88;;;;;;;;;;5084384;28;20028;-82
2022/05/29 00:19:54;;;;;;;42.47;32.13;;;;;;;;;;5079419;28;20028;-82
2022/05/29 00:22:21;;;;;;;38.63;32.15;;;;;;;;;;5085122;28;20012;-82
2022/05/29 00:24:49;;;;;;;44.83;35.08;;;;;;;;;;5080277;28;20021;-82
2022/05/29 00:27:18;;;;;;;48.65;39.22;;;;;;;;;;5094675;28;20032;-81
2022/05/29 00:29:45;;;;;;;45.80;33.95;;;;;;;;;;5093601;28;20106;-78
2022/05/29 00:32:11;;;;;;;41.53;34.03;;;;;;;;;;5103224;28;20024;-77
2022/05/29 00:34:38;;;;;;;41.65;32.60;;;;;;;;;;5111095;28;20083;-78
2022/05/29 00:37:05;;;;;;;37.55;30.65;;;;;;;;;;5100512;28;20032;-80
2022/05/29 00:39:31;;;;;;;45.97;33.20;;;;;;;;;;5106860;28;20004;-81
2022/05/29 00:41:58;;;;;;;40.10;32.70;;;;;;;;;;5080738;28;20035;-83
2022/05/29 00:44:25;;;;;;;42.65;32.90;;;;;;;;;;5087280;28;20056;-83
2022/05/29 00:46:53;;;;;;;35.72;30.92;;;;;;;;;;5068271;28;20396;-82
2022/05/29 00:49:23;;;;;;;41.90;31.25;;;;;;;;;;5110649;28;20131;-81
2022/05/29 00:52:08;;;;;;;38.75;30.42;;;;;;;;;;5105149;28;20024;-81
2022/05/29 00:54:43;;;;;;;41.38;32.08;;;;;;;;;;5084432;28;20031;-81
2022/05/29 00:57:17;;;;;;;37.92;30.63;;;;;;;;;;5091142;28;20381;-80
2022/05/29 00:59:43;;;;;;;43.92;33.42;;;;;;;;;;5085130;28;20028;-81
2022/05/29 01:02:10;;;;;;;40.67;34.53;;;;;;;;;;5106671;28;20053;-84
2022/05/29 01:04:39;;;;;;;38.88;32.60;;;;;;;;;;5083942;28;20138;-78
2022/05/29 01:07:09;;;;;;;37.97;31.60;;;;;;;;;;5098197;28;20036;-78
2022/05/29 01:09:36;;;;;;;46.38;33.20;;;;;;;;;;5104137;28;20019;-79
2022/05/29 01:12:07;;;;;;;37.20;30.58;;;;;;;;;;5107085;28;20016;-84
2022/05/29 01:14:33;;;;;;;45.22;32.70;;;;;;;;;;5084113;28;20009;-83
2022/05/29 01:16:59;;;;;;;38.28;32.15;;;;;;;;;;5071267;28;20016;-77
2022/05/29 01:19:38;;;;;;;34.83;29.65;;;;;;;;;;5103618;28;20401;-82
2022/05/29 01:22:10;;;;;;;36.28;31.67;;;;;;;;;;5100697;28;20020;-80
2022/05/29 01:24:51;;;;;;;42.42;32.85;;;;;;;;;;5099945;28;20020;-82
2022/05/29 01:27:35;;;;;;;49.08;37.30;;;;;;;;;;5101526;28;20036;-82
2022/05/29 01:30:08;;;;;;;47.55;34.80;;;;;;;;;;5085060;28;20024;-82
2022/05/29 01:32:37;;;;;;;38.00;33.83;;;;;;;;;;5095864;28;20028;-80
2022/05/29 01:35:09;;;;;;;48.38;37.53;;;;;;;;;;5082640;28;20020;-80
2022/05/29 01:37:58;;;;;;;41.65;34.83;;;;;;;;;;5076165;28;20013;-79
2022/05/29 01:40:30;;;;;;;42.80;32.25;;;;;;;;;;5076659;28;20116;-79
2022/05/29 01:43:19;;;;;;;38.30;32.45;;;;;;;;;;5075706;28;20023;-80
2022/05/29 01:45:56;;;;;;;39.93;31.07;;;;;;;;;;5073561;28;20035;-80
2022/05/29 01:48:22;;;;;;;34.90;29.65;;;;;;;;;;5089574;28;20278;-81
2022/05/29 01:50:53;;;;;;;38.47;29.90;;;;;;;;;;5081749;28;20061;-81
2022/05/29 01:53:22;;;;;;;32.33;28.50;;;;;;;;;;5085060;28;20020;-81
2022/05/29 01:55:52;;;;;;;38.42;29.50;;;;;;;;;;5061689;28;20055;-82
2022/05/29 01:58:21;;;;;;;35.38;29.42;;;;;;;;;;5084379;28;20677;-83
2022/05/29 02:00:48;;;;;;;43.17;29.73;;;;;;;;;;5095334;28;20012;-81
2022/05/29 02:03:23;;;;;;;41.70;29.90;;;;;;;;;;5081093;28;20021;-81
2022/05/29 02:05:51;;;;;;;41.25;33.85;;;;;;;;;;5076589;28;20047;-82
2022/05/29 02:08:20;;;;;;;36.13;30.52;;;;;;;;;;5055672;28;20027;-83
2022/05/29 02:10:53;;;;;;;38.75;32.00;;;;;;;;;;5057883;28;20020;-78
2022/05/29 02:13:22;;;;;;;39.33;31.42;;;;;;;;;;5074650;28;20119;-78
2022/05/29 02:16:08;;;;;;;43.60;31.95;;;;;;;;;;5076416;28;20017;-78
2022/05/29 02:18:39;;;;;;;36.35;29.80;;;;;;;;;;5094925;28;20024;-79
2022/05/29 02:21:08;;;;;;;40.30;31.30;;;;;;;;;;5095613;28;20024;-78
2022/05/29 02:23:37;;;;;;;44.05;31.80;;;;;;;;;;5093902;28;20023;-78
2022/05/29 02:26:04;;;;;;;40.78;32.95;;;;;;;;;;5095588;28;20054;-78
2022/05/29 02:28:36;;;;;;;59.13;44.88;;;;;;;;;;5095326;28;20024;-79
2022/05/29 02:31:02;;;;;;;59.67;51.15;;;;;;;;;;5095015;28;20005;-78
2022/05/29 02:33:40;;;;;;;71.40;56.30;;;;;;;;;;5085066;28;20051;-79
2022/05/29 02:36:29;;;;;;;74.50;57.15;;;;;;;;;;5076086;28;20017;-78
2022/05/29 02:38:58;;;;;;;65.68;51.90;;;;;;;;;;5076151;28;20032;-78
2022/05/29 02:41:30;;;;;;;59.22;46.92;;;;;;;;;;5064383;28;20047;-79
2022/05/29 02:44:25;;;;;;;72.93;56.03;;;;;;;;;;5076156;28;20028;-79
2022/05/29 02:46:53;;;;;;;75.47;57.35;;;;;;;;;;5057157;28;20492;-79
2022/05/29 02:49:42;;;;;;;75.07;57.40;;;;;;;;;;5074978;28;20049;-79
2022/05/29 02:52:13;;;;;;;72.78;53.22;;;;;;;;;;5061799;28;20039;-79
2022/05/29 02:54:39;;;;;;;72.13;52.70;;;;;;;;;;5075313;28;20046;-79
2022/05/29 02:57:07;;;;;;;65.97;51.78;;;;;;;;;;5074135;28;20048;-79
2022/05/29 02:59:36;;;;;;;69.72;52.22;;;;;;;;;;5074168;28;20012;-79
2022/05/29 03:02:02;;;;;;;66.22;51.92;;;;;;;;;;5073895;28;20020;-79
2022/05/29 03:04:34;;;;;;;64.47;52.17;;;;;;;;;;5057469;28;20016;-79
2022/05/29 03:07:19;;;;;;;64.65;48.88;;;;;;;;;;5076871;28;20107;-77
2022/05/29 03:10:03;;;;;;;57.63;46.22;;;;;;;;;;5058560;28;20083;-78
2022/05/29 03:12:36;;;;;;;62.65;46.30;;;;;;;;;;5069323;28;20388;-79
2022/05/29 03:15:08;;;;;;;58.05;46.17;;;;;;;;;;5095398;28;20024;-79
2022/05/29 03:17:34;;;;;;;59.90;45.70;;;;;;;;;;5094932;28;20484;-80
2022/05/29 03:20:14;;;;;;;56.92;42.65;;;;;;;;;;5080387;28;20043;-80
2022/05/29 03:22:40;;;;;;;59.15;44.15;;;;;;;;;;5100917;28;20019;-80
2022/05/29 03:25:12;;;;;;;58.38;43.70;;;;;;;;;;5100059;28;20020;-78
2022/05/29 03:27:42;;;;;;;56.55;46.13;;;;;;;;;;5081530;28;20036;-80
2022/05/29 03:30:10;;;;;;;60.15;42.63;;;;;;;;;;5099268;28;20063;-78
2022/05/29 03:32:37;;;;;;;48.13;39.72;;;;;;;;;;5098762;28;20028;-79
2022/05/29 03:35:17;;;;;;;48.13;36.97;;;;;;;;;;5077787;28;20062;-78
2022/05/29 03:37:43;;;;;;;;;;;;;;;;;;5061061;28;20027;-81
2022/05/29 03:40:10;;;;;;;51.13;39.47;;;;;;;;;;5078760;28;19901;-79
2022/05/29 03:42:36;;;;;;;51.60;38.97;;;;;;;;;;5060796;28;20508;-79
2022/05/29 03:45:02;;;;;;;51.85;38.47;;;;;;;;;;5079140;28;20032;-79
2022/05/29 03:47:28;;;;;;;42.50;35.70;;;;;;;;;;5079033;28;20032;-80
2022/05/29 03:49:54;;;;;;;47.42;37.60;;;;;;;;;;5078795;28;20041;-79
2022/05/29 03:52:20;;;;;;;42.85;35.22;;;;;;;;;;5079274;28;20566;-79
2022/05/29 03:54:47;;;;;;;47.22;39.45;;;;;;;;;;5079018;28;20032;-79
2022/05/29 03:57:14;;;;;;;45.33;37.22;;;;;;;;;;5078203;28;20055;-80
2022/05/29 03:59:40;;;;;;;43.35;34.38;;;;;;;;;;5077537;28;20021;-79
2022/05/29 04:02:06;;;;;;;46.33;34.42;;;;;;;;;;5078005;28;20016;-78
2022/05/29 04:04:32;;;;;;;43.13;34.55;;;;;;;;;;5076630;28;20025;-78
2022/05/29 04:06:58;;;;;;;47.05;34.42;;;;;;;;;;5060411;28;20487;-80
2022/05/29 04:12:13;;;;;;;47.05;36.50;;;;;;;;;;5075703;28;20082;-76
2022/05/29 04:14:41;;;;;;;49.03;36.40;;;;;;;;;;5077327;28;20029;-77
2022/05/29 04:17:12;;;;;;;41.95;34.88;;;;;;;;;;5077820;28;20080;-80
2022/05/29 04:19:39;;;;;;;40.53;33.00;;;;;;;;;;5077841;28;20012;-79
2022/05/29 04:22:13;;;;;;;36.80;32.08;;;;;;;;;;5077421;28;20020;-80
2022/05/29 04:24:39;;;;;;;42.72;35.13;;;;;;;;;;5076980;28;20008;-79
2022/05/29 04:27:09;;;;;;;41.40;30.77;;;;;;;;;;5076227;28;20074;-80
2022/05/29 04:29:36;;;;;;;39.40;34.58;;;;;;;;;;5075823;28;20388;-79
2022/05/29 04:34:46;;;;;;;38.00;31.48;;;;;;;;;;5076062;28;20114;-80
2022/05/29 04:37:13;;;;;;;43.20;34.78;;;;;;;;;;5078619;28;20031;-80
2022/05/29 04:39:39;;;;;;;40.58;33.63;;;;;;;;;;5096292;28;20042;-78
2022/05/29 04:42:05;;;;;;;40.78;32.88;;;;;;;;;;5095793;28;20534;-79
2022/05/29 04:44:31;;;;;;;48.05;34.30;;;;;;;;;;5096336;28;20110;-78
2022/05/29 04:47:01;;;;;;;44.50;35.10;;;;;;;;;;5096561;28;20032;-79
2022/05/29 04:49:28;;;;;;;43.67;35.30;;;;;;;;;;5100158;28;20044;-79
2022/05/29 04:51:54;;;;;;;42.83;33.70;;;;;;;;;;5102881;28;20028;-78
2022/05/29 04:54:20;;;;;;;45.13;35.97;;;;;;;;;;5104843;28;20108;-79
2022/05/29 04:56:47;;;;;;;41.38;34.90;;;;;;;;;;5102229;28;20365;-77
2022/05/29 04:59:13;;;;;;;52.38;38.35;;;;;;;;;;5086307;28;20121;-80
2022/05/29 05:01:39;;;;;;;46.25;36.65;;;;;;;;;;5100530;28;20030;-79
2022/05/29 05:04:06;;;;;;;45.38;37.25;;;;;;;;;;5099271;28;20004;-80
2022/05/29 05:06:32;;;;;;;47.13;36.67;;;;;;;;;;5098639;28;20052;-80
2022/05/29 05:08:58;;;;;;;44.13;33.85;;;;;;;;;;5098723;28;20112;-80
2022/05/29 05:11:25;;;;;;;42.03;34.47;;;;;;;;;;5098330;28;20019;-79
2022/05/29 05:13:51;;;;;;;40.97;31.92;;;;;;;;;;5099476;28;20023;-80
2022/05/29 05:16:17;;;;;;;40.78;31.75;;;;;;;;;;5096909;28;20099;-79
2022/05/29 05:18:43;;;;;;;38.35;32.00;;;;;;;;;;5095616;28;20020;-80
2022/05/29 05:21:10;;;;;;;44.20;34.15;;;;;;;;;;5097054;28;20094;-80
2022/05/29 05:23:36;;;;;;;45.13;37.08;;;;;;;;;;5096452;28;20426;-80
2022/05/29 05:26:13;;;;;;;39.70;32.08;;;;;;;;;;5102421;28;20084;-81
2022/05/29 05:28:39;;;;;;;39.30;33.53;;;;;;;;;;5111018;28;20030;-79
2022/05/29 05:31:05;;;;;;;38.28;34.15;;;;;;;;;;5112669;28;20028;-82
2022/05/29 05:33:31;;;;;;;37.35;30.70;;;;;;;;;;5105354;28;20013;-77
2022/05/29 05:35:57;;;;;;;34.78;30.95;;;;;;;;;;5103162;28;20043;-78
2022/05/29 05:38:24;;;;;;;36.58;30.25;;;;;;;;;;5101531;28;20050;-80
2022/05/29 05:40:50;;;;;;;38.25;31.85;;;;;;;;;;5102993;28;20055;-81
2022/05/29 05:43:19;;;;;;;33.45;27.55;;;;;;;;;;5101741;28;20028;-80
2022/05/29 05:45:45;;;;;;;35.40;30.30;;;;;;;;;;5098956;28;20031;-82
2022/05/29 05:48:11;;;;;;;39.45;33.95;;;;;;;;;;5089044;28;20757;-81
2022/05/29 05:50:38;;;;;;;54.72;39.47;;;;;;;;;;5098479;28;20111;-79
2022/05/29 05:53:04;;;;;;;47.50;39.47;;;;;;;;;;5099500;28;20024;-78
2022/05/29 05:55:31;;;;;;;51.85;40.53;;;;;;;;;;5099773;28;20023;-77
2022/05/29 05:57:57;;;;;;;44.80;37.92;;;;;;;;;;5098381;28;20137;-79
2022/05/29 06:00:43;;;;;;;51.13;42.95;;;;;;;;;;5071248;28;20422;-80
2022/05/29 06:03:13;;;;;;;51.28;40.63;;;;;;;;;;5073217;28;20023;-83
2022/05/29 06:05:38;;;;;;;;;;;;;;;;;;5063858;28;20013;-81
2022/05/29 06:08:05;;;;;;;45.38;38.67;;;;;;;;;;5062980;28;20003;-79
2022/05/29 06:10:31;;;;;;;55.45;42.38;;;;;;;;;;5065046;28;20155;-84
2022/05/29 06:13:01;;;;;;;48.70;39.63;;;;;;;;;;5080224;28;20469;-84
2022/05/29 06:15:29;;;;;;;;;;;;;;;;;;5082970;28;20095;-81
2022/05/29 06:17:56;;;;;;;43.67;37.72;;;;;;;;;;5071031;28;20441;-83
2022/05/29 06:20:25;;;;;;;44.25;35.95;;;;;;;;;;5082151;28;20027;-80
2022/05/29 06:22:51;;;;;;;46.15;33.58;;;;;;;;;;5092398;28;20024;-83
2022/05/29 06:25:18;;;;;;;37.15;32.17;;;;;;;;;;5085455;28;20031;-83
2022/05/29 06:27:45;;;;;;;36.80;28.90;;;;;;;;;;5105451;28;20442;-83
2022/05/29 06:30:18;;;;;;;32.67;28.10;;;;;;;;;;5072114;28;20048;-85
2022/05/29 06:32:45;;;;;;;31.50;26.60;;;;;;;;;;5085440;28;20016;-84
2022/05/29 06:35:12;;;;;;;35.63;28.00;;;;;;;;;;5084933;28;20012;-84
2022/05/29 06:37:39;;;;;;;35.47;27.05;;;;;;;;;;5102601;28;20015;-83
2022/05/29 06:40:06;;;;;;;32.60;29.08;;;;;;;;;;5086884;28;20016;-84
2022/05/29 06:42:35;;;;;;;29.02;25.85;;;;;;;;;;5082376;28;20411;-84
2022/05/29 06:45:02;;;;;;;29.73;24.83;;;;;;;;;;5097523;28;20468;-84
2022/05/29 06:47:32;;;;;;;29.77;24.98;;;;;;;;;;5074755;28;20038;-83
2022/05/29 06:49:59;;;;;;;28.92;25.02;;;;;;;;;;5071654;28;20044;-81
2022/05/29 06:52:35;;;;;;;31.63;28.10;;;;;;;;;;5088087;28;20020;-81
2022/05/29 06:55:03;;;;;;;32.53;25.35;;;;;;;;;;5069429;28;20035;-81
2022/05/29 06:57:43;;;;;;;39.53;25.63;;;;;;;;;;5088984;28;20024;-81
2022/05/29 07:08:37;;;;;;;29.08;23.50;;;;;;;;;;5096961;28;20042;-81
2022/05/29 07:11:08;;;;;;;29.95;22.33;;;;;;;;;;5089595;28;20469;-81
2022/05/29 07:13:35;;;;;;;25.95;21.95;;;;;;;;;;5092190;28;20051;-82
2022/05/29 07:16:01;;;;;;;32.08;23.55;;;;;;;;;;5100906;28;20095;-82
2022/05/29 07:18:29;;;;;;;29.63;25.73;;;;;;;;;;5097240;28;20024;-82
2022/05/29 07:21:02;;;;;;;28.10;23.75;;;;;;;;;;5076194;28;20084;-81
2022/05/29 07:23:28;;;;;;;37.53;26.67;;;;;;;;;;5067902;28;20024;-85
2022/05/29 07:25:58;;;;;;;29.20;26.05;;;;;;;;;;5077080;28;20019;-85
2022/05/29 07:28:24;;;;;;;30.45;25.10;;;;;;;;;;5080733;28;20469;-81
2022/05/29 07:30:57;;;;;;;31.02;24.05;;;;;;;;;;5095912;28;20388;-83
2022/05/29 07:33:26;;;;;;;30.83;25.65;;;;;;;;;;5077573;28;20011;-81
2022/05/29 07:35:52;;;;;;;29.92;24.75;;;;;;;;;;5094884;28;20069;-84
2022/05/29 07:38:22;;;;;;;33.65;26.25;;;;;;;;;;5076020;28;20027;-83
2022/05/29 07:40:49;;;;;;;31.52;23.33;;;;;;;;;;5076447;28;20028;-84
2022/05/29 07:46:07;;;;;;;26.63;21.38;;;;;;;;;;5072400;28;20136;-82
2022/05/29 07:48:34;;;;;;;32.22;21.95;;;;;;;;;;5078902;28;20020;-84
2022/05/29 07:51:03;;;;;;;26.42;23.48;;;;;;;;;;5074980;28;20036;-84
2022/05/29 07:53:29;;;;;;;23.02;20.52;;;;;;;;;;5076814;28;20056;-82
2022/05/29 07:55:55;;;;;;;28.20;21.25;;;;;;;;;;5065851;28;20052;-84
2022/05/29 07:58:25;;;;;;;22.42;20.08;;;;;;;;;;5078119;28;20012;-84
2022/05/29 08:00:51;;;;;;;26.65;20.17;;;;;;;;;;5073772;28;20027;-82
2022/05/29 08:03:22;;;;;;;22.95;19.17;;;;;;;;;;5091924;28;20038;-83
2022/05/29 08:05:51;;;;;;;22.17;19.70;;;;;;;;;;5065994;28;20031;-84
2022/05/29 08:08:18;;;;;;;26.27;19.63;;;;;;;;;;5096819;28;20058;-85
2022/05/29 08:10:46;;;;;;;22.42;19.10;;;;;;;;;;5075761;28;20024;-82
2022/05/29 08:13:14;;;;;;;25.17;21.35;;;;;;;;;;5083524;28;20028;-83
2022/05/29 08:15:40;;;;;;;32.67;21.63;;;;;;;;;;5087676;28;20025;-83
2022/05/29 08:18:12;;;;;;;25.73;19.02;;;;;;;;;;5078293;28;20111;-83
2022/05/29 08:20:39;;;;;;;25.08;19.35;;;;;;;;;;5085995;28;20058;-84
2022/05/29 08:23:06;;;;;;;25.38;19.75;;;;;;;;;;5093125;28;20022;-83
2022/05/29 08:31:04;;;;;;;24.42;21.25;;;;;;;;;;5090788;28;20035;-81
2022/05/29 08:33:31;;;;;;;23.93;19.93;;;;;;;;;;5081808;28;20017;-84
2022/05/29 08:36:02;;;;;;;23.85;18.70;;;;;;;;;;5076486;28;20369;-84
2022/05/29 08:38:42;;;;;;;22.77;20.13;;;;;;;;;;5085765;28;20028;-83
2022/05/29 08:41:11;;;;;;;27.17;18.83;;;;;;;;;;5066839;28;20023;-83
2022/05/29 08:43:39;;;;;;;23.63;19.97;;;;;;;;;;5087809;28;20840;-83
2022/05/29 08:46:11;;;;;;;26.65;21.23;;;;;;;;;;5076973;28;20054;-83
2022/05/29 08:48:37;;;;;;;20.02;17.90;;;;;;;;;;5085124;28;20035;-83
2022/05/29 08:51:25;;;;;;;27.20;18.20;;;;;;;;;;5070775;28;20012;-83
2022/05/29 08:54:09;;;;;;;23.88;19.60;;;;;;;;;;5090033;28;20416;-82
2022/05/29 08:56:38;;;;;;;25.40;22.70;;;;;;;;;;5075462;28;20120;-83
2022/05/29 08:59:23;;;;;;;26.10;20.47;;;;;;;;;;5087748;28;20440;-84
2022/05/29 09:02:01;;;;;;;24.55;19.17;;;;;;;;;;5081401;28;20099;-83
2022/05/29 09:04:41;;;;;;;22.92;18.90;;;;;;;;;;5089279;28;20481;-86
2022/05/29 09:07:09;;;;;;;23.65;19.13;;;;;;;;;;5069116;28;20071;-80
2022/05/29 09:09:38;;;;;;;31.73;23.45;;;;;;;;;;5089916;28;20414;-77
2022/05/29 09:12:06;;;;;;;23.80;20.37;;;;;;;;;;5091309;28;20082;-77
2022/05/29 09:14:41;;;;;;;23.52;19.60;;;;;;;;;;5077681;28;20016;-77
2022/05/29 09:17:25;;;;;;;26.38;22.10;;;;;;;;;;5075808;28;20070;-77
2022/05/29 09:19:55;;;;;;;28.00;23.67;;;;;;;;;;5092157;28;21558;-78
2022/05/29 09:22:21;;;;;;;26.10;21.10;;;;;;;;;;5093216;28;20020;-75
2022/05/29 09:25:06;;;;;;;36.55;21.77;;;;;;;;;;5090908;28;20024;-76
2022/05/29 09:27:33;;;;;;;24.27;20.30;;;;;;;;;;5090576;28;20082;-78
2022/05/29 09:30:00;;;;;;;23.00;19.90;;;;;;;;;;5086850;28;20013;-78
2022/05/29 09:32:27;;;;;;;33.10;25.23;;;;;;;;;;5079573;28;20055;-78
2022/05/29 09:35:26;;;;;;;27.00;23.65;;;;;;;;;;5096211;28;20208;-78
2022/05/29 09:37:58;;;;;;;31.30;26.00;;;;;;;;;;5052182;28;20139;-77
2022/05/29 09:40:29;;;;;;;31.23;25.25;;;;;;;;;;5091295;28;20024;-78
2022/05/29 09:42:55;;;;;;;30.63;24.88;;;;;;;;;;5091527;28;20515;-78
2022/05/29 09:45:26;;;;;;;30.75;24.98;;;;;;;;;;5067090;28;20035;-79
2022/05/29 09:50:45;;;;;;;36.83;28.42;;;;;;;;;;5065859;28;20142;-80
2022/05/29 09:53:13;;;;;;;30.77;26.02;;;;;;;;;;5074730;28;20033;-81
2022/05/29 09:55:47;;;;;;;35.58;26.52;;;;;;;;;;5065061;28;20051;-80
2022/05/29 09:58:18;;;;;;;30.15;26.02;;;;;;;;;;5070045;28;20039;-79
2022/05/29 10:01:02;;;;;;;31.77;27.70;;;;;;;;;;5059276;28;20104;-81
2022/05/29 10:03:39;;;;;;;29.10;25.83;;;;;;;;;;5064500;28;20501;-77
2022/05/29 10:06:14;;;;;;;32.55;26.13;;;;;;;;;;5072938;28;20067;-79
2022/05/29 10:08:40;;;;;;;27.15;24.10;;;;;;;;;;5065184;28;20031;-79
2022/05/29 10:11:14;;;;;;;33.45;26.60;;;;;;;;;;5066167;28;20024;-79
2022/05/29 10:13:41;;;;;;;29.60;25.25;;;;;;;;;;5068609;28;20029;-80
2022/05/29 10:16:08;;;;;;;29.70;24.40;;;;;;;;;;5078172;28;20024;-79
2022/05/29 10:18:36;;;;;;;30.17;25.27;;;;;;;;;;5073760;28;20362;-78
2022/05/29 10:21:05;;;;;;;29.55;25.05;;;;;;;;;;5069403;28;20106;-81
2022/05/29 10:23:34;;;;;;;31.95;26.35;;;;;;;;;;5065348;28;20020;-78
2022/05/29 10:26:06;;;;;;;32.00;27.00;;;;;;;;;;5056873;28;20043;-78
2022/05/29 10:28:35;;;;;;;31.20;26.30;;;;;;;;;;5054833;28;20170;-78
2022/05/29 10:31:07;;;;;;;31.97;28.50;;;;;;;;;;5060435;28;20469;-79
2022/05/29 10:33:34;;;;;;;33.33;26.65;;;;;;;;;;5066072;28;20020;-77
2022/05/29 10:36:17;;;;;;;34.20;27.45;;;;;;;;;;5060650;28;20031;-79
2022/05/29 10:38:44;;;;;;;34.72;26.55;;;;;;;;;;5067161;28;20021;-80
2022/05/29 10:41:11;;;;;;;31.85;27.27;;;;;;;;;;5071596;28;20492;-77
2022/05/29 10:43:48;;;;;;;33.10;26.05;;;;;;;;;;5076539;28;20033;-76
2022/05/29 10:46:17;;;;;;;32.08;27.42;;;;;;;;;;5081682;28;20017;-77
2022/05/29 10:49:04;;;;;;;31.70;26.75;;;;;;;;;;5071806;28;20094;-77
2022/05/29 10:51:46;;;;;;;27.63;23.88;;;;;;;;;;5082204;28;20024;-79
2022/05/29 10:54:18;;;;;;;32.78;23.85;;;;;;;;;;5102281;28;20023;-78
2022/05/29 10:56:54;;;;;;;25.88;23.10;;;;;;;;;;5084813;28;20017;-80
2022/05/29 10:59:49;;;;;;;28.15;21.92;;;;;;;;;;5095596;28;20020;-78
2022/05/29 11:05:48;;;;;;;25.98;22.88;;;;;;;;;;5092007;28;20046;-80
2022/05/29 11:08:20;;;;;;;25.58;22.73;;;;;;;;;;5036481;28;20073;-78
2022/05/29 11:11:01;;;;;;;25.55;19.63;;;;;;;;;;5092281;28;20020;-81
2022/05/29 11:13:40;;;;;;;23.42;20.90;;;;;;;;;;5075542;28;20031;-79
2022/05/29 11:16:15;;;;;;;27.27;22.10;;;;;;;;;;5079404;28;20025;-81
2022/05/29 11:19:00;;;;;;;20.52;18.45;;;;;;;;;;5088217;28;20013;-82
2022/05/29 11:21:32;;;;;;;28.02;20.48;;;;;;;;;;5077535;28;20021;-80
2022/05/29 11:24:16;;;;;;;27.67;21.23;;;;;;;;;;5085068;28;20013;-80
2022/05/29 11:26:59;;;;;;;27.75;21.52;;;;;;;;;;5081856;28;20021;-79
2022/05/29 11:29:25;;;;;;;24.10;21.52;;;;;;;;;;5057552;28;20100;-80
2022/05/29 11:32:09;;;;;;;22.45;19.70;;;;;;;;;;5063052;28;20081;-81
2022/05/29 11:34:38;;;;;;;24.42;21.17;;;;;;;;;;5085676;28;20030;-84
2022/05/29 11:37:16;;;;;;;22.52;19.92;;;;;;;;;;5083551;28;20035;-94
2022/05/29 11:39:52;;;;;;;24.52;20.38;;;;;;;;;;5074237;28;20028;-89
2022/05/29 11:42:21;;;;;;;25.92;20.83;;;;;;;;;;5068280;28;20063;-92
2022/05/29 11:44:57;;;;;;;23.33;20.27;;;;;;;;;;5089451;28;20062;-91
2022/05/29 11:53:26;;;;;;;27.17;23.20;;;;;;;;;;5109450;28;20059;-92
2022/05/29 11:55:57;;;;;;;26.92;21.58;;;;;;;;;;5108982;28;20033;-93
2022/05/29 11:58:45;;;;;;;26.92;22.65;;;;;;;;;;5095458;28;20075;-92
2022/05/29 12:01:17;;;;;;;23.75;21.08;;;;;;;;;;5071113;28;20111;-91
2022/05/29 12:03:50;;;;;;;28.23;21.83;;;;;;;;;;5085046;28;20009;-91
2022/05/29 12:06:19;;;;;;;24.75;19.98;;;;;;;;;;5092270;28;20122;-91
2022/05/29 12:09:01;;;;;;;26.35;22.23;;;;;;;;;;5101725;28;20025;-91
2022/05/29 12:11:31;;;;;;;;;;;;;;;;;;5091935;28;20080;-88
2022/05/29 12:14:00;;;;;;;23.33;19.52;;;;;;;;;;5066025;28;20370;-90
2022/05/29 12:16:30;;;;;;;24.42;19.92;;;;;;;;;;5065061;28;20025;-90
2022/05/29 12:18:58;;;;;;;25.92;20.80;;;;;;;;;;5066787;28;20401;-89
2022/05/29 12:21:29;;;;;;;22.70;20.25;;;;;;;;;;5078671;28;20027;-90
2022/05/29 12:23:57;;;;;;;25.27;22.08;;;;;;;;;;5084115;28;20480;-91
2022/05/29 12:26:28;;;;;;;24.48;21.50;;;;;;;;;;5094654;28;20031;-92
2022/05/29 12:29:10;;;;;;;26.77;21.40;;;;;;;;;;5088678;28;20028;-91
2022/05/29 12:31:43;;;;;;;26.52;23.75;;;;;;;;;;5084243;28;20047;-92
2022/05/29 12:34:36;;;;;;;23.38;20.92;;;;;;;;;;5066470;28;20084;-90
2022/05/29 12:37:10;;;;;;;22.90;20.33;;;;;;;;;;5081135;28;20046;-90
2022/05/29 12:39:40;;;;;;;23.75;19.95;;;;;;;;;;5076908;28;20039;-89
2022/05/29 12:42:24;;;;;;;26.00;21.30;;;;;;;;;;5066779;28;20016;-89
2022/05/29 12:44:51;;;;;;;23.85;20.55;;;;;;;;;;5073765;28;20054;-90
2022/05/29 12:47:29;;;;;;;23.15;20.50;;;;;;;;;;5086910;28;20032;-91
2022/05/29 12:50:27;;;;;;;22.38;19.98;;;;;;;;;;5074667;28;20144;-88
2022/05/29 12:53:06;;;;;;;26.88;19.35;;;;;;;;;;5064013;28;20020;-88
2022/05/29 12:55:51;;;;;;;21.35;18.50;;;;;;;;;;5064501;28;20024;-88
2022/05/29 12:58:34;;;;;;;23.67;19.58;;;;;;;;;;5062630;28;20039;-88
2022/05/29 13:01:07;;;;;;;21.95;19.20;;;;;;;;;;5084489;28;20061;-89
2022/05/29 13:03:42;;;;;;;23.50;19.27;;;;;;;;;;5083817;28;20013;-86
2022/05/29 13:06:27;;;;;;;21.63;18.10;;;;;;;;;;5066577;28;20111;-89
2022/05/29 13:08:54;;;;;;;20.52;18.27;;;;;;;;;;5068823;28;20024;-88
2022/05/29 13:11:25;;;;;;;19.90;17.83;;;;;;;;;;5087107;28;20005;-89
2022/05/29 13:13:59;;;;;;;20.70;18.17;;;;;;;;;;5065298;28;20025;-87
2022/05/29 13:16:25;;;;;;;22.17;19.42;;;;;;;;;;5092471;28;20115;-88
2022/05/29 13:19:18;;;;;;;20.42;17.70;;;;;;;;;;5072928;28;20080;-85
2022/05/29 13:21:55;;;;;;;21.08;18.60;;;;;;;;;;5099707;28;20113;-86
2022/05/29 13:24:23;;;;;;;20.67;17.92;;;;;;;;;;5085379;28;20028;-86
2022/05/29 13:27:10;;;;;;;20.30;18.08;;;;;;;;;;5081756;28;20153;-87
2022/05/29 13:29:38;;;;;;;18.92;16.92;;;;;;;;;;5066082;28;20031;-88
2022/05/29 13:32:08;;;;;;;21.63;17.40;;;;;;;;;;5081222;28;20408;-87
2022/05/29 13:34:34;;;;;;;20.05;17.63;;;;;;;;;;5080568;28;20031;-88
2022/05/29 13:37:05;;;;;;;25.33;18.63;;;;;;;;;;5065511;28;20024;-89
2022/05/29 13:39:33;;;;;;;20.85;18.52;;;;;;;;;;5081996;28;20023;-89
2022/05/29 13:41:59;;;;;;;24.90;18.40;;;;;;;;;;5082314;28;20028;-88
2022/05/29 13:44:28;;;;;;;22.92;18.15;;;;;;;;;;5072915;28;20088;-88
2022/05/29 13:47:18;;;;;;;26.15;19.27;;;;;;;;;;5062607;28;20040;-88
2022/05/29 13:49:48;;;;;;;21.75;19.00;;;;;;;;;;5057521;28;20349;-87
2022/05/29 13:52:17;;;;;;;21.95;19.38;;;;;;;;;;5079408;28;20028;-89
2022/05/29 13:54:46;;;;;;;25.42;20.88;;;;;;;;;;5063911;28;20016;-87
2022/05/29 14:06:18;;;;;;;25.30;21.50;;;;;;;;;;5087701;28;20039;-89
2022/05/29 14:08:59;;;;;;;22.00;19.40;;;;;;;;;;5078384;28;20121;-88
2022/05/29 14:11:42;;;;;;;25.95;20.52;;;;;;;;;;5085735;28;20026;-88
2022/05/29 14:14:27;;;;;;;28.60;21.52;;;;;;;;;;5088366;28;20027;-88
2022/05/29 14:16:54;;;;;;;22.20;19.42;;;;;;;;;;5084385;28;20028;-89
2022/05/29 14:19:33;;;;;;;23.23;19.63;;;;;;;;;;5054494;28;20031;-89
2022/05/29 14:22:17;;;;;;;29.38;20.75;;;;;;;;;;5071368;28;20024;-89
2022/05/29 14:25:02;;;;;;;22.73;20.33;;;;;;;;;;5072743;28;20017;-88
2022/05/29 14:28:04;;;;;;;26.45;21.58;;;;;;;;;;5088051;28;20036;-88
2022/05/29 14:30:30;;;;;;;21.88;18.30;;;;;;;;;;5075725;28;20020;-89
2022/05/29 14:32:56;;;;;;;22.58;19.15;;;;;;;;;;5073436;28;20027;-89
2022/05/29 14:35:25;;;;;;;26.50;20.58;;;;;;;;;;5076494;28;20115;-88
2022/05/29 14:38:18;;;;;;;23.05;20.35;;;;;;;;;;5067145;28;20032;-90
2022/05/29 14:40:53;;;;;;;22.65;19.95;;;;;;;;;;5074853;28;20024;-88
2022/05/29 14:43:23;;;;;;;22.75;20.35;;;;;;;;;;5078386;28;20476;-90
2022/05/29 14:46:26;;;;;;;24.77;19.92;;;;;;;;;;5082545;28;20031;-90
2022/05/29 14:49:01;;;;;;;22.17;19.52;;;;;;;;;;5094601;28;20036;-87
2022/05/29 14:51:30;;;;;;;24.08;18.90;;;;;;;;;;5059951;28;20139;-90
2022/05/29 14:54:00;;;;;;;23.38;19.13;;;;;;;;;;5076454;28;20028;-90
2022/05/29 14:56:31;;;;;;;22.13;17.40;;;;;;;;;;5078998;28;20031;-89
2022/05/29 14:59:14;;;;;;;21.65;17.73;;;;;;;;;;5083868;28;20024;-89
2022/05/29 15:01:41;;;;;;;25.13;18.67;;;;;;;;;;5064840;28;20055;-90
2022/05/29 15:04:08;;;;;;;22.75;19.35;;;;;;;;;;5065558;28;20028;-88
2022/05/29 15:12:07;;;;;;;21.63;18.23;;;;;;;;;;5095885;28;20024;-88
2022/05/29 15:14:33;;;;;;;20.67;18.55;;;;;;;;;;5062697;28;20035;-87
2022/05/29 15:17:01;;;;;;;23.02;18.35;;;;;;;;;;5090414;28;20156;-89
2022/05/29 15:25:17;;;;;;;21.52;19.27;;;;;;;;;;5094354;28;20039;-87
2022/05/29 15:27:44;;;;;;;20.90;17.75;;;;;;;;;;5079026;28;20037;-87
2022/05/29 15:30:19;;;;;;;23.23;19.15;;;;;;;;;;5069559;28;20039;-86
2022/05/29 15:32:49;;;;;;;22.38;18.63;;;;;;;;;;5074332;28;20031;-89
2022/05/29 15:35:33;;;;;;;25.90;20.48;;;;;;;;;;5081093;28;20066;-88
2022/05/29 15:38:06;;;;;;;21.00;18.80;;;;;;;;;;5084053;28;20028;-87